Time;durP1;ratioP1;P1;durP2;ratioP2;P2;SDS_P1;SDS_P2;PMS_P1;PMS_P2;Temp;Humidity;BMP_temperature;BMP_pressure;BME280_temperature;BME280_humidity;BME280_pressure;Samples;Min_cycle;Max_cycle;Signal;HPM_P1;HPM_P2
2021/01/15 00:00:44;;;;;;;40.58;17.98;;;-3276.70;97.70;;;;;;5008064;28;20022;-66
2021/01/15 00:03:09;;;;;;;42.05;19.27;;;-3276.70;97.60;;;;;;5024434;28;20036;-66
2021/01/15 00:05:38;;;;;;;38.63;19.52;;;-3276.60;97.60;;;;;;5012223;28;20045;-67
2021/01/15 00:08:05;;;;;;;40.35;18.23;;;-3276.70;97.50;;;;;;5012067;28;20022;-66
2021/01/15 00:10:30;;;;;;;43.25;18.67;;;-3276.60;97.50;;;;;;5011296;28;20039;-67
2021/01/15 00:12:56;;;;;;;35.63;18.48;;;-3276.60;97.40;;;;;;5024229;28;20060;-67
2021/01/15 00:15:21;;;;;;;37.58;18.42;;;-3276.70;97.40;;;;;;5013930;28;20101;-67
2021/01/15 00:17:47;;;;;;;44.35;18.52;;;-3276.60;97.40;;;;;;4994854;28;20414;-67
2021/01/15 00:20:12;;;;;;;36.47;17.27;;;-3276.70;97.40;;;;;;5032771;28;20382;-68
2021/01/15 00:22:44;;;;;;;32.55;17.15;;;-3276.70;97.40;;;;;;5011097;28;20127;-67
2021/01/15 00:25:11;;;;;;;40.88;18.45;;;-3276.70;97.40;;;;;;5032764;28;20487;-68
2021/01/15 00:27:37;;;;;;;38.63;17.30;;;-3276.60;97.40;;;;;;5018574;28;20025;-69
2021/01/15 00:30:06;;;;;;;35.67;17.85;;;-3276.60;97.40;;;;;;5014376;28;20030;-67
2021/01/15 00:32:32;;;;;;;33.78;16.88;;;-3276.60;97.30;;;;;;5011140;28;20029;-66
2021/01/15 00:34:57;;;;;;;29.88;15.98;;;-3276.70;97.40;;;;;;5016881;28;20040;-67
2021/01/15 00:37:23;;;;;;;34.72;16.73;;;-3276.70;97.40;;;;;;5068689;22;20463;-64
2021/01/15 00:39:49;;;;;;;34.22;16.35;;;-3276.70;97.30;;;;;;5050266;28;20033;-65
2021/01/15 00:42:14;;;;;;;29.27;15.30;;;-3276.70;97.30;;;;;;5041641;28;20479;-65
2021/01/15 00:44:45;;;;;;;33.90;15.48;;;-3276.70;97.30;;;;;;5045133;28;20056;-65
2021/01/15 00:47:11;;;;;;;30.85;16.00;;;-3276.70;97.20;;;;;;5051052;28;20083;-65
2021/01/15 00:49:37;;;;;;;35.33;15.85;;;-3276.70;97.10;;;;;;5037103;28;20025;-65
2021/01/15 00:52:02;;;;;;;28.65;15.50;;;-3276.70;97.00;;;;;;5044846;28;20084;-65
2021/01/15 00:54:28;;;;;;;28.67;16.40;;;-3276.70;97.00;;;;;;5033299;28;20438;-65
2021/01/15 00:57:06;;;;;;;29.10;16.10;;;-3276.70;96.90;;;;;;5029447;28;20117;-65
2021/01/15 00:59:32;;;;;;;33.75;15.43;;;-3276.70;96.90;;;;;;5039351;28;20108;-65
2021/01/15 01:01:57;;;;;;;29.48;15.60;;;-3276.70;96.90;;;;;;5032954;28;20411;-65
2021/01/15 01:04:23;;;;;;;32.88;15.82;;;-3276.70;96.90;;;;;;5023187;28;20028;-66
2021/01/15 01:06:48;;;;;;;27.55;15.18;;;-3276.70;96.90;;;;;;5034042;28;20047;-64
2021/01/15 01:09:14;;;;;;;31.35;16.35;;;-3276.70;97.00;;;;;;5028767;28;20438;-65
2021/01/15 01:11:40;;;;;;;26.23;15.15;;;-3276.70;97.00;;;;;;5027977;28;20033;-65
2021/01/15 01:14:05;;;;;;;28.52;14.70;;;-3276.70;97.00;;;;;;5031625;28;20057;-65
2021/01/15 01:16:32;;;;;;;29.83;14.77;;;-3276.70;97.00;;;;;;5032114;28;20043;-65
2021/01/15 01:18:57;;;;;;;26.58;15.65;;;-3276.70;97.00;;;;;;5036097;28;20397;-65
2021/01/15 01:21:24;;;;;;;26.75;14.85;;;0.00;96.90;;;;;;5032973;28;20029;-65
2021/01/15 01:23:51;;;;;;;30.83;15.05;;;0.00;96.90;;;;;;5045144;28;20423;-65
2021/01/15 01:26:17;;;;;;;27.13;14.45;;;-3276.70;96.80;;;;;;5029324;28;20434;-65
2021/01/15 01:28:43;;;;;;;25.90;14.50;;;0.00;96.80;;;;;;5037095;28;20132;-65
2021/01/15 01:31:13;;;;;;;27.40;14.80;;;-3276.70;96.80;;;;;;5028502;28;20048;-66
2021/01/15 01:33:40;;;;;;;24.58;14.80;;;-3276.70;96.90;;;;;;5035112;28;20097;-65
2021/01/15 01:36:07;;;;;;;27.83;14.52;;;-3276.70;96.80;;;;;;5020830;28;20099;-65
2021/01/15 01:38:33;;;;;;;24.88;14.82;;;0.00;96.90;;;;;;5012601;28;20470;-64
2021/01/15 01:40:59;;;;;;;25.30;14.98;;;-3276.70;96.90;;;;;;5045638;28;20446;-65
2021/01/15 01:43:25;;;;;;;25.58;14.48;;;-3276.70;96.90;;;;;;5039315;28;20017;-65
2021/01/15 01:45:51;;;;;;;26.58;14.73;;;-3276.70;96.90;;;;;;5031937;28;20045;-65
2021/01/15 01:48:17;;;;;;;26.75;14.88;;;0.00;96.80;;;;;;5012095;28;20033;-65
2021/01/15 01:50:45;;;;;;;28.63;14.68;;;0.00;96.70;;;;;;5034808;28;20029;-65
2021/01/15 01:53:13;;;;;;;28.15;14.88;;;0.00;96.60;;;;;;5035242;28;20086;-65
2021/01/15 01:55:41;;;;;;;25.13;13.80;;;0.00;96.50;;;;;;5030911;28;20435;-65
2021/01/15 01:58:07;;;;;;;23.33;13.90;;;0.00;96.40;;;;;;5026879;28;20374;-65
2021/01/15 02:00:35;;;;;;;28.25;14.77;;;0.00;96.40;;;;;;5029510;28;20034;-65
2021/01/15 02:03:02;;;;;;;25.73;14.07;;;0.00;96.40;;;;;;5045913;28;20111;-65
2021/01/15 02:05:28;;;;;;;28.10;14.18;;;0.00;96.40;;;;;;5033840;28;20029;-65
2021/01/15 02:07:54;;;;;;;22.30;12.65;;;0.00;96.50;;;;;;5026771;28;20022;-65
2021/01/15 02:10:28;;;;;;;24.33;13.85;;;0.00;96.40;;;;;;5032691;28;20428;-65
2021/01/15 02:12:56;;;;;;;21.85;12.68;;;0.00;96.40;;;;;;5028928;28;20104;-65
2021/01/15 02:15:31;;;;;;;24.67;13.45;;;0.00;96.50;;;;;;5035282;28;20043;-65
2021/01/15 02:18:05;;;;;;;22.23;13.27;;;0.00;96.40;;;;;;5037767;28;20029;-65
2021/01/15 02:20:30;;;;;;;22.05;12.98;;;0.00;96.20;;;;;;5037490;28;20135;-65
2021/01/15 02:23:13;;;;;;;23.45;13.93;;;0.00;96.30;;;;;;5032978;28;20120;-65
2021/01/15 02:25:53;;;;;;;25.58;14.07;;;0.00;96.30;;;;;;5026576;28;20328;-65
2021/01/15 02:28:31;;;;;;;24.83;14.80;;;0.00;96.30;;;;;;5026470;28;20025;-65
2021/01/15 02:31:37;;;;;;;23.52;13.90;;;0.00;96.30;;;;;;5029064;28;20119;-64
2021/01/15 02:34:50;;;;;;;23.23;12.90;;;0.00;96.30;;;;;;5032087;28;20098;-65
2021/01/15 02:37:18;;;;;;;29.58;15.15;;;0.00;96.30;;;;;;5043112;28;20336;-64
2021/01/15 02:39:59;;;;;;;29.13;15.45;;;0.00;96.30;;;;;;5011126;28;20403;-65
2021/01/15 02:42:26;;;;;;;26.48;14.93;;;0.00;96.40;;;;;;5027289;28;20021;-65
2021/01/15 02:44:53;;;;;;;30.25;14.95;;;0.00;96.50;;;;;;5026552;28;20034;-65
2021/01/15 02:47:24;;;;;;;25.67;15.38;;;0.00;96.50;;;;;;5029026;28;20037;-65
2021/01/15 02:49:51;;;;;;;28.88;15.90;;;0.00;96.50;;;;;;5042313;28;20304;-65
2021/01/15 02:52:18;;;;;;;29.50;16.10;;;0.00;96.50;;;;;;5026145;28;20440;-65
2021/01/15 02:54:44;;;;;;;27.38;15.63;;;;;;;;;;5036362;28;20132;-65
2021/01/15 02:57:09;;;;;;;30.70;15.95;;;0.00;96.40;;;;;;5034458;28;20442;-65
2021/01/15 02:59:35;;;;;;;26.85;15.38;;;0.10;96.40;;;;;;5034588;28;20040;-65
2021/01/15 03:02:08;;;;;;;30.10;17.17;;;0.00;96.40;;;;;;5034318;28;20488;-65
2021/01/15 03:04:54;;;;;;;28.20;16.55;;;0.00;96.40;;;;;;5030671;28;20021;-65
2021/01/15 03:07:22;;;;;;;29.92;15.27;;;0.00;96.50;;;;;;5033442;28;20056;-66
2021/01/15 03:09:52;;;;;;;30.02;17.67;;;0.00;96.50;;;;;;5036135;28;20025;-65
2021/01/15 03:12:21;;;;;;;35.45;17.10;;;0.00;96.50;;;;;;5031921;28;20504;-66
2021/01/15 03:14:47;;;;;;;30.10;16.80;;;0.00;96.60;;;;;;5029732;28;20028;-65
2021/01/15 03:17:14;;;;;;;28.58;17.25;;;0.00;96.60;;;;;;5037660;28;20033;-66
2021/01/15 03:19:40;;;;;;;34.85;18.23;;;0.00;96.60;;;;;;5027075;28;20230;-65
2021/01/15 03:22:19;;;;;;;31.17;17.48;;;0.00;96.60;;;;;;5007615;28;20033;-66
2021/01/15 03:25:11;;;;;;;32.65;17.60;;;0.00;96.60;;;;;;5025462;28;20055;-65
2021/01/15 03:27:44;;;;;;;33.97;18.05;;;0.00;96.70;;;;;;5029434;28;20041;-66
2021/01/15 03:30:13;;;;;;;31.42;17.08;;;0.00;96.70;;;;;;5028624;28;20061;-66
2021/01/15 03:32:39;;;;;;;33.05;18.02;;;0.00;96.70;;;;;;5041162;28;20155;-65
2021/01/15 03:35:06;;;;;;;35.92;18.42;;;0.10;96.80;;;;;;5033196;28;20056;-65
2021/01/15 03:37:33;;;;;;;31.38;17.55;;;0.00;96.80;;;;;;5008847;28;20366;-65
2021/01/15 03:39:58;;;;;;;32.28;18.15;;;0.00;96.80;;;;;;5027473;28;20037;-65
2021/01/15 03:42:24;;;;;;;35.75;18.02;;;0.00;96.80;;;;;;5036616;28;20037;-65
2021/01/15 03:44:50;;;;;;;35.38;18.73;;;0.00;96.80;;;;;;5043486;28;20089;-66
2021/01/15 03:47:15;;;;;;;31.35;17.80;;;0.00;96.90;;;;;;5034766;28;20103;-65
2021/01/15 03:49:41;;;;;;;33.53;18.25;;;0.00;96.90;;;;;;5035810;28;20028;-65
2021/01/15 03:52:10;;;;;;;33.47;18.17;;;0.10;96.90;;;;;;5036095;28;20030;-65
2021/01/15 03:54:35;;;;;;;37.85;19.83;;;0.10;96.90;;;;;;5039250;28;20036;-65
2021/01/15 03:57:01;;;;;;;31.77;18.48;;;0.00;96.90;;;;;;5025324;28;20025;-65
2021/01/15 03:59:26;;;;;;;33.83;18.90;;;0.00;96.90;;;;;;5036397;28;20462;-66
2021/01/15 04:01:52;;;;;;;34.45;19.50;;;0.10;96.90;;;;;;5028108;28;20095;-66
2021/01/15 04:04:18;;;;;;;35.55;19.10;;;0.10;96.90;;;;;;5032490;28;20100;-65
2021/01/15 04:06:43;;;;;;;34.78;18.73;;;0.10;96.90;;;;;;5034732;28;20346;-65
2021/01/15 04:09:09;;;;;;;37.08;19.48;;;0.10;96.90;;;;;;5035273;28;20033;-65
2021/01/15 04:11:34;;;;;;;39.28;21.20;;;0.10;96.90;;;;;;5031965;28;20037;-65
2021/01/15 04:14:00;;;;;;;36.88;19.73;;;0.10;96.90;;;;;;5036518;28;20028;-66
2021/01/15 04:16:25;;;;;;;36.35;19.90;;;0.10;96.90;;;;;;5037406;28;20021;-65
2021/01/15 04:18:51;;;;;;;36.13;20.00;;;0.10;96.90;;;;;;5040676;28;20044;-65
2021/01/15 04:21:16;;;;;;;39.92;20.00;;;0.10;96.90;;;;;;5026118;28;20405;-66
2021/01/15 04:23:45;;;;;;;38.30;19.77;;;0.10;96.90;;;;;;5025547;28;20112;-65
2021/01/15 04:26:20;;;;;;;32.22;18.20;;;0.10;96.90;;;;;;5036278;28;20022;-65
2021/01/15 04:28:47;;;;;;;36.70;18.08;;;0.10;96.90;;;;;;5030890;28;20100;-64
2021/01/15 04:31:17;;;;;;;33.60;19.25;;;0.10;96.90;;;;;;5026024;28;20125;-65
2021/01/15 04:33:42;;;;;;;35.57;18.80;;;0.10;97.00;;;;;;5025530;28;20029;-65
2021/01/15 04:36:11;;;;;;;35.58;19.98;;;0.10;97.00;;;;;;5039931;28;20036;-65
2021/01/15 04:38:38;;;;;;;36.55;19.55;;;0.10;97.00;;;;;;5029137;28;20033;-65
2021/01/15 04:41:04;;;;;;;33.42;18.48;;;0.10;97.00;;;;;;5040461;28;20033;-65
2021/01/15 04:43:34;;;;;;;33.90;18.48;;;0.10;97.00;;;;;;5038279;28;20482;-66
2021/01/15 04:46:02;;;;;;;37.40;19.00;;;0.10;97.10;;;;;;5031301;28;20039;-65
2021/01/15 04:48:30;;;;;;;36.80;19.83;;;0.20;97.10;;;;;;5036814;28;20106;-65
2021/01/15 04:50:59;;;;;;;33.92;18.88;;;0.10;97.00;;;;;;5032751;28;20127;-66
2021/01/15 04:53:27;;;;;;;36.38;17.98;;;0.10;97.00;;;;;;5033515;28;20081;-65
2021/01/15 04:55:58;;;;;;;35.13;18.27;;;0.10;97.00;;;;;;5028814;28;20476;-65
2021/01/15 04:58:32;;;;;;;33.50;17.77;;;0.10;96.90;;;;;;5028027;28;20087;-65
2021/01/15 05:00:58;;;;;;;30.90;17.85;;;0.20;96.90;;;;;;5032151;28;20068;-65
2021/01/15 05:03:25;;;;;;;34.53;18.15;;;0.20;96.90;;;;;;5032499;28;20024;-64
2021/01/15 05:05:59;;;;;;;33.50;16.85;;;0.20;96.90;;;;;;5037135;28;20037;-65
2021/01/15 05:08:28;;;;;;;28.73;16.65;;;0.20;96.90;;;;;;5031364;28;20074;-65
2021/01/15 05:10:55;;;;;;;31.67;16.42;;;0.20;96.90;;;;;;5024373;28;20032;-65
2021/01/15 05:13:22;;;;;;;27.73;16.02;;;0.20;96.90;;;;;;5014346;28;20040;-65
2021/01/15 05:15:49;;;;;;;26.70;15.93;;;0.20;96.80;;;;;;5038339;28;20075;-65
2021/01/15 05:18:17;;;;;;;27.80;15.48;;;0.20;96.70;;;;;;5036960;28;20329;-65
2021/01/15 05:20:44;;;;;;;30.75;14.00;;;0.10;96.70;;;;;;5029426;28;20036;-66
2021/01/15 05:23:10;;;;;;;24.40;13.50;;;0.10;96.60;;;;;;5045648;28;20021;-66
2021/01/15 05:25:46;;;;;;;23.58;13.30;;;0.10;96.50;;;;;;5031010;28;20044;-65
2021/01/15 05:28:14;;;;;;;22.35;13.38;;;0.10;96.30;;;;;;5028239;28;20113;-65
2021/01/15 05:30:41;;;;;;;21.80;13.20;;;0.10;96.30;;;;;;5045536;28;20042;-65
2021/01/15 05:33:14;;;;;;;21.40;12.43;;;0.10;96.40;;;;;;5040582;28;20371;-65
2021/01/15 05:35:45;;;;;;;24.10;12.68;;;0.10;96.30;;;;;;5034024;28;20355;-66
2021/01/15 05:38:12;;;;;;;25.60;13.45;;;0.10;96.30;;;;;;5039984;28;20033;-64
2021/01/15 05:40:43;;;;;;;24.35;12.65;;;0.10;96.40;;;;;;5032698;28;20036;-66
2021/01/15 05:43:42;;;;;;;21.25;12.38;;;0.10;96.40;;;;;;5028604;28;20025;-66
2021/01/15 05:46:16;;;;;;;28.90;13.07;;;0.10;96.40;;;;;;5015916;28;20056;-66
2021/01/15 05:48:57;;;;;;;24.30;13.20;;;0.10;96.40;;;;;;5027766;28;20082;-66
2021/01/15 05:51:24;;;;;;;19.08;11.73;;;0.10;96.30;;;;;;5027812;28;20119;-66
2021/01/15 05:53:50;;;;;;;22.23;12.35;;;0.10;96.30;;;;;;5035484;28;20116;-66
2021/01/15 05:56:21;;;;;;;20.35;12.13;;;0.10;96.20;;;;;;5041990;28;20161;-66
2021/01/15 05:59:07;;;;;;;22.63;11.77;;;0.10;96.10;;;;;;5026789;28;20034;-66
2021/01/15 06:01:53;;;;;;;21.67;11.43;;;0.10;95.80;;;;;;5013558;28;20047;-66
2021/01/15 06:04:28;;;;;;;19.80;11.57;;;0.10;95.70;;;;;;5026808;28;20112;-67
2021/01/15 06:06:54;;;;;;;19.38;12.18;;;0.10;95.60;;;;;;5038843;28;20422;-64
2021/01/15 06:09:21;;;;;;;19.35;11.05;;;0.10;95.60;;;;;;5029638;28;20297;-66
2021/01/15 06:11:49;;;;;;;17.60;10.77;;;0.10;95.60;;;;;;5028347;28;20406;-65
2021/01/15 06:14:26;;;;;;;20.60;11.32;;;0.10;95.60;;;;;;5037859;28;20056;-66
2021/01/15 06:17:06;;;;;;;18.05;11.00;;;0.10;95.50;;;;;;5028652;28;20391;-66
2021/01/15 06:19:53;;;;;;;21.58;9.13;;;0.00;95.30;;;;;;5027782;28;20377;-66
2021/01/15 06:22:44;;;;;;;15.52;9.48;;;0.00;95.00;;;;;;5011730;28;20139;-66
2021/01/15 06:25:35;;;;;;;17.02;9.63;;;0.00;94.80;;;;;;5034207;28;20450;-66
2021/01/15 06:28:03;;;;;;;17.83;9.80;;;0.00;94.60;;;;;;5031944;28;20025;-66
2021/01/15 06:30:31;;;;;;;13.60;7.55;;;0.00;94.40;;;;;;5026947;28;20430;-66
2021/01/15 06:33:14;;;;;;;18.63;9.23;;;0.00;94.30;;;;;;5031075;28;20055;-66
2021/01/15 06:35:41;;;;;;;13.73;8.98;;;0.00;94.10;;;;;;5027751;28;20048;-65
2021/01/15 06:38:14;;;;;;;16.88;9.00;;;0.00;94.30;;;;;;5052584;23;20045;-67
2021/01/15 06:40:48;;;;;;;20.65;9.90;;;0.00;94.00;;;;;;5030434;28;20477;-67
2021/01/15 06:43:28;;;;;;;16.58;8.93;;;0.00;93.50;;;;;;5029219;28;20142;-68
2021/01/15 06:46:02;;;;;;;15.73;9.05;;;-3276.70;93.00;;;;;;5039187;28;20020;-68
2021/01/15 06:48:38;;;;;;;14.32;8.82;;;0.00;93.00;;;;;;5054041;28;20433;-68
2021/01/15 06:51:05;;;;;;;15.90;9.18;;;0.00;93.20;;;;;;5051746;28;20021;-67
2021/01/15 06:53:38;;;;;;;14.05;8.30;;;-3276.70;93.20;;;;;;5049085;28;20082;-67
2021/01/15 06:56:05;;;;;;;16.17;9.55;;;-3276.70;92.50;;;;;;5049590;28;20016;-68
2021/01/15 06:58:39;;;;;;;14.45;9.20;;;-3276.70;92.90;;;;;;5053468;28;20056;-67
2021/01/15 07:01:19;;;;;;;16.33;8.65;;;-3276.70;93.10;;;;;;5057659;28;20024;-67
2021/01/15 07:03:57;;;;;;;14.20;8.35;;;-3276.70;93.30;;;;;;5034114;28;20017;-66
2021/01/15 07:06:32;;;;;;;15.45;8.95;;;-3276.70;92.80;;;;;;5052425;28;20369;-67
2021/01/15 07:09:00;;;;;;;15.02;9.63;;;-3276.70;92.60;;;;;;5042012;28;20025;-69
2021/01/15 07:11:28;;;;;;;16.30;9.07;;;-3276.70;92.80;;;;;;5050607;28;20081;-67
2021/01/15 07:13:59;;;;;;;17.25;9.05;;;-3276.70;92.80;;;;;;5050180;28;20123;-67
2021/01/15 07:16:37;;;;;;;16.80;9.50;;;-3276.70;92.50;;;;;;5042949;28;20024;-67
2021/01/15 07:19:05;;;;;;;14.27;9.15;;;-3276.70;92.50;;;;;;5042789;28;20067;-69
2021/01/15 07:21:34;;;;;;;14.30;9.45;;;-3276.70;92.40;;;;;;5046635;28;20091;-67
2021/01/15 07:24:09;;;;;;;15.63;9.35;;;-3276.60;92.30;;;;;;5044453;28;20098;-67
2021/01/15 07:26:42;;;;;;;16.65;8.90;;;-3276.70;92.20;;;;;;5044668;28;20506;-68
2021/01/15 07:29:15;;;;;;;17.70;9.93;;;-3276.70;92.50;;;;;;5034832;28;20052;-67
2021/01/15 07:31:45;;;;;;;14.65;9.20;;;-3276.70;91.90;;;;;;5046326;28;20035;-68
2021/01/15 07:34:16;;;;;;;18.75;9.63;;;-3276.60;92.40;;;;;;5052371;28;20066;-67
2021/01/15 07:36:42;;;;;;;14.77;8.82;;;-3276.60;91.80;;;;;;5046688;28;20055;-67
2021/01/15 07:39:12;;;;;;;15.10;8.65;;;-3276.70;91.70;;;;;;5041903;28;20564;-67
2021/01/15 07:41:52;;;;;;;14.52;9.65;;;-3276.60;92.00;;;;;;5048820;28;20064;-68
2021/01/15 07:44:21;;;;;;;16.05;10.20;;;-3276.60;91.90;;;;;;5045817;28;20438;-68
2021/01/15 07:46:54;;;;;;;18.20;10.35;;;-3276.60;92.30;;;;;;5032386;28;20794;-67
2021/01/15 07:49:20;;;;;;;16.95;9.40;;;-3276.60;92.30;;;;;;5032161;28;20139;-68
2021/01/15 07:52:09;;;;;;;15.05;9.07;;;-3276.60;92.30;;;;;;5032996;28;20208;-68
2021/01/15 07:55:04;;;;;;;17.17;10.60;;;-3276.60;91.50;;;;;;5043408;28;20107;-67
2021/01/15 07:57:31;;;;;;;16.08;9.63;;;-3276.70;91.90;;;;;;5018254;28;20140;-66
2021/01/15 08:00:17;;;;;;;15.43;9.73;;;-3276.60;91.40;;;;;;5031017;28;20040;-67
2021/01/15 08:02:43;;;;;;;18.17;10.13;;;-3276.60;91.40;;;;;;5034768;28;20071;-67
2021/01/15 08:05:09;;;;;;;16.33;10.05;;;-3276.70;91.90;;;;;;5035946;28;20470;-69
2021/01/15 08:07:35;;;;;;;16.63;9.75;;;-3276.70;91.70;;;;;;5038278;28;20021;-67
2021/01/15 08:10:01;;;;;;;16.60;9.13;;;-3276.60;92.00;;;;;;5043392;28;20362;-67
2021/01/15 08:12:35;;;;;;;18.05;10.55;;;-3276.60;91.70;;;;;;5028163;28;20189;-66
2021/01/15 08:15:01;;;;;;;18.98;9.98;;;-3276.70;91.80;;;;;;5044218;28;20531;-66
2021/01/15 08:17:27;;;;;;;14.85;10.38;;;-3276.60;91.80;;;;;;5041221;28;20034;-66
2021/01/15 08:19:52;;;;;;;16.73;10.75;;;-3276.60;90.90;;;;;;5040917;28;20025;-69
2021/01/15 08:22:20;;;;;;;18.27;10.48;;;-3276.70;91.90;;;;;;5041319;28;20531;-67
2021/01/15 08:24:47;;;;;;;15.07;9.77;;;-3276.70;91.80;;;;;;5047344;28;20033;-66
2021/01/15 08:27:22;;;;;;;16.95;9.25;;;-3276.60;91.60;;;;;;5036573;28;20038;-67
2021/01/15 08:29:51;;;;;;;17.08;9.88;;;-3276.70;91.10;;;;;;5041908;28;20315;-67
2021/01/15 08:32:17;;;;;;;17.50;9.90;;;-3276.70;91.40;;;;;;5041149;28;20369;-67
2021/01/15 08:34:45;;;;;;;15.88;10.38;;;-3276.70;91.30;;;;;;5045911;28;20033;-67
2021/01/15 08:37:15;;;;;;;19.10;10.10;;;-3276.70;91.50;;;;;;5039957;28;20072;-67
2021/01/15 08:39:53;;;;;;;17.35;9.35;;;-3276.70;91.60;;;;;;5027167;28;20055;-67
2021/01/15 08:42:20;;;;;;;17.20;9.60;;;-3276.70;91.00;;;;;;5043424;28;20097;-67
2021/01/15 08:44:50;;;;;;;19.77;11.30;;;-3276.70;91.20;;;;;;5046081;28;20446;-67
2021/01/15 08:47:17;;;;;;;17.87;11.20;;;-3276.70;91.30;;;;;;5033093;28;20112;-68
2021/01/15 08:49:59;;;;;;;19.15;10.32;;;-3276.70;90.80;;;;;;5037184;28;20030;-66
2021/01/15 08:52:29;;;;;;;20.02;12.35;;;-3276.70;91.40;;;;;;5026295;28;20048;-66
2021/01/15 08:54:55;;;;;;;19.30;11.52;;;-3276.70;91.10;;;;;;5044296;28;20036;-67
2021/01/15 08:57:28;;;;;;;18.10;11.48;;;-3276.70;91.50;;;;;;5039075;28;20083;-67
2021/01/15 08:59:54;;;;;;;16.98;11.45;;;-3276.70;91.80;;;;;;5044739;28;20029;-68
2021/01/15 09:02:22;;;;;;;24.13;12.55;;;0.00;91.90;;;;;;5024298;28;20074;-69
2021/01/15 09:04:49;;;;;;;19.33;11.63;;;-3276.70;91.70;;;;;;5046003;28;20070;-67
2021/01/15 09:07:17;;;;;;;21.02;12.50;;;-3276.70;91.20;;;;;;5038393;28;20044;-67
2021/01/15 09:09:44;;;;;;;15.73;9.15;;;-3276.60;91.10;;;;;;5042384;28;20017;-68
2021/01/15 09:12:10;;;;;;;17.60;10.63;;;-3276.60;90.50;;;;;;5043108;28;20395;-67
2021/01/15 09:14:36;;;;;;;21.10;11.95;;;-3276.60;90.90;;;;;;5043936;28;20496;-68
2021/01/15 09:17:09;;;;;;;18.45;11.20;;;-3276.60;90.50;;;;;;5039113;28;20029;-67
2021/01/15 09:19:35;;;;;;;18.45;11.30;;;-3276.50;90.30;;;;;;5021803;28;20109;-68
2021/01/15 09:22:08;;;;;;;21.23;11.45;;;-3276.60;90.90;;;;;;5039758;28;20037;-67
2021/01/15 09:24:35;;;;;;;19.85;11.45;;;-3276.60;90.40;;;;;;5047108;28;20367;-67
2021/01/15 09:27:10;;;;;;;17.35;11.20;;;-3276.60;90.80;;;;;;5033500;28;20471;-67
2021/01/15 09:29:38;;;;;;;17.77;10.07;;;-3276.60;90.50;;;;;;5045685;28;20048;-68
2021/01/15 09:32:04;;;;;;;20.77;10.73;;;-3276.60;89.80;;;;;;5024835;28;20033;-67
2021/01/15 09:34:30;;;;;;;19.30;10.80;;;-3276.60;89.90;;;;;;5043677;28;20080;-67
2021/01/15 09:36:56;;;;;;;16.35;9.98;;;-3276.60;89.30;;;;;;5041566;28;20051;-67
2021/01/15 09:39:25;;;;;;;15.40;9.73;;;-3276.50;88.80;;;;;;5042908;28;20148;-68
2021/01/15 09:41:52;;;;;;;16.20;10.13;;;-3276.60;88.20;;;;;;5042065;28;20437;-69
2021/01/15 09:44:23;;;;;;;17.63;10.05;;;-3276.60;88.60;;;;;;5045309;28;20025;-67
2021/01/15 09:46:50;;;;;;;;;;;-3276.60;88.90;;;;;;5039745;28;20033;-67
2021/01/15 09:49:16;;;;;;;18.10;10.93;;;-3276.60;89.30;;;;;;5037233;28;20340;-67
2021/01/15 09:51:42;;;;;;;14.43;9.68;;;-3276.60;90.00;;;;;;5040936;28;20080;-67
2021/01/15 09:54:08;;;;;;;18.17;9.77;;;-3276.60;89.10;;;;;;5045281;28;20084;-67
2021/01/15 09:56:42;;;;;;;15.15;9.63;;;-3276.60;89.30;;;;;;5025618;28;20394;-67
2021/01/15 09:59:12;;;;;;;15.50;10.10;;;-3276.50;88.40;;;;;;5044207;28;20076;-68
2021/01/15 10:01:38;;;;;;;18.00;11.32;;;-3276.60;89.30;;;;;;5036419;28;20652;-68
2021/01/15 10:04:04;;;;;;;17.00;10.27;;;-3276.60;88.90;;;;;;5028317;28;20056;-67
2021/01/15 10:06:32;;;;;;;18.52;9.82;;;-3276.60;88.90;;;;;;5039107;28;20025;-66
2021/01/15 10:08:59;;;;;;;15.85;10.07;;;-3276.60;88.40;;;;;;5030151;28;20024;-67
2021/01/15 10:11:28;;;;;;;18.20;10.10;;;-3276.60;88.50;;;;;;5044732;28;20339;-67
2021/01/15 10:13:55;;;;;;;16.00;9.90;;;-3276.70;88.70;;;;;;5021668;28;20029;-68
2021/01/15 10:16:21;;;;;;;17.33;9.68;;;-3276.60;88.50;;;;;;5036433;28;20548;-68
2021/01/15 10:18:47;;;;;;;17.50;10.27;;;-3276.60;88.30;;;;;;5040557;28;20579;-68
2021/01/15 10:21:12;;;;;;;19.25;10.05;;;-3276.60;88.30;;;;;;5043216;28;20017;-68
2021/01/15 10:23:38;;;;;;;16.90;9.20;;;-3276.60;88.30;;;;;;5040728;28;20044;-68
2021/01/15 10:26:05;;;;;;;15.98;9.55;;;-3276.60;88.40;;;;;;5023526;28;20495;-68
2021/01/15 10:28:31;;;;;;;18.80;10.50;;;-3276.70;88.20;;;;;;5048494;28;20439;-68
2021/01/15 10:30:57;;;;;;;17.50;10.15;;;-3276.70;88.70;;;;;;5045092;28;20056;-69
2021/01/15 10:33:23;;;;;;;14.85;9.27;;;-3276.70;88.00;;;;;;5048504;28;20052;-67
2021/01/15 10:35:52;;;;;;;16.23;10.02;;;-3276.70;88.30;;;;;;5047150;28;20033;-67
2021/01/15 10:38:18;;;;;;;16.45;9.32;;;-3276.70;88.70;;;;;;5034930;28;20109;-67
2021/01/15 10:40:44;;;;;;;16.55;10.00;;;-3276.70;88.30;;;;;;5047941;28;20394;-68
2021/01/15 10:43:11;;;;;;;16.85;9.70;;;-3276.60;88.50;;;;;;5036741;28;20028;-68
2021/01/15 10:45:37;;;;;;;17.95;10.25;;;-3276.60;87.60;;;;;;5021253;28;20080;-67
2021/01/15 10:48:03;;;;;;;17.73;9.55;;;-3276.70;88.90;;;;;;5027447;28;22036;-68
2021/01/15 10:50:30;;;;;;;19.70;10.13;;;-3276.70;88.30;;;;;;5036870;28;20271;-69
2021/01/15 10:52:56;;;;;;;16.27;9.68;;;-3276.70;88.50;;;;;;5042886;28;20079;-68
2021/01/15 10:55:22;;;;;;;16.83;9.48;;;-3276.70;88.50;;;;;;5044947;28;20438;-67
2021/01/15 10:57:48;;;;;;;18.23;8.90;;;-3276.70;88.30;;;;;;5033554;28;20467;-67
2021/01/15 11:00:15;;;;;;;16.63;10.27;;;0.00;88.60;;;;;;5042915;28;20087;-67
2021/01/15 11:02:41;;;;;;;19.95;9.80;;;-3276.70;88.60;;;;;;5035345;28;20036;-67
2021/01/15 11:05:07;;;;;;;18.70;10.18;;;-3276.70;88.20;;;;;;5042267;28;20152;-67
2021/01/15 11:07:33;;;;;;;17.45;9.30;;;-3276.70;89.00;;;;;;5036895;28;20039;-68
2021/01/15 11:09:59;;;;;;;16.83;10.30;;;0.00;88.90;;;;;;5040710;28;20477;-67
2021/01/15 11:12:25;;;;;;;16.05;8.82;;;0.00;88.70;;;;;;5036808;28;20120;-67
2021/01/15 11:14:51;;;;;;;15.77;8.98;;;-3276.70;87.80;;;;;;5043971;28;20037;-68
2021/01/15 11:17:16;;;;;;;19.55;9.80;;;-3276.70;88.10;;;;;;5041827;28;20039;-67
2021/01/15 11:19:43;;;;;;;14.60;8.60;;;-3276.70;88.50;;;;;;5042916;28;20471;-68
2021/01/15 11:22:08;;;;;;;15.68;9.25;;;-3276.60;87.70;;;;;;5038699;28;20032;-67
2021/01/15 11:24:34;;;;;;;13.30;8.63;;;-3276.60;87.80;;;;;;5037361;28;20017;-67
2021/01/15 11:27:00;;;;;;;15.13;8.60;;;-3276.70;87.90;;;;;;5016478;28;20611;-67
2021/01/15 11:29:26;;;;;;;18.15;9.65;;;-3276.70;87.70;;;;;;5038735;28;20033;-67
2021/01/15 11:31:51;;;;;;;15.88;9.43;;;-3276.70;87.90;;;;;;5034570;28;20064;-67
2021/01/15 11:34:20;;;;;;;13.38;8.40;;;0.00;87.90;;;;;;5044047;28;20052;-67
2021/01/15 11:36:48;;;;;;;14.88;8.75;;;-3276.70;87.40;;;;;;5036921;28;20043;-67
2021/01/15 11:39:14;;;;;;;14.40;8.27;;;-3276.70;87.60;;;;;;5024449;28;20060;-68
2021/01/15 11:41:40;;;;;;;17.40;8.52;;;-3276.70;87.50;;;;;;5036346;28;20108;-68
2021/01/15 11:44:06;;;;;;;15.60;8.88;;;-3276.70;87.50;;;;;;5041791;28;20325;-68
2021/01/15 11:46:32;;;;;;;15.00;8.55;;;-3276.70;88.10;;;;;;5057137;28;20132;-68
2021/01/15 11:49:01;;;;;;;14.50;7.97;;;-3276.70;87.40;;;;;;5049305;28;20049;-67
2021/01/15 11:51:31;;;;;;;13.40;8.27;;;-3276.70;87.90;;;;;;5036817;28;20036;-68
2021/01/15 11:53:56;;;;;;;12.93;7.53;;;-3276.60;87.10;;;;;;5050519;28;20469;-67
2021/01/15 11:56:22;;;;;;;14.05;8.68;;;-3276.60;86.90;;;;;;5052594;28;20123;-68
2021/01/15 11:58:48;;;;;;;13.18;7.18;;;-3276.60;87.40;;;;;;5036124;28;20044;-67
2021/01/15 12:01:17;;;;;;;13.50;8.02;;;-3276.60;87.20;;;;;;5051083;28;20417;-67
2021/01/15 12:03:43;;;;;;;13.95;8.23;;;-3276.60;87.50;;;;;;5025446;28;20044;-68
2021/01/15 12:06:12;;;;;;;14.40;8.38;;;-3276.60;87.30;;;;;;5045087;28;20021;-68
2021/01/15 12:08:39;;;;;;;15.63;8.70;;;-3276.60;87.60;;;;;;5040817;28;20044;-67
2021/01/15 12:11:07;;;;;;;12.90;7.63;;;-3276.60;88.00;;;;;;5048071;28;20025;-67
2021/01/15 12:13:37;;;;;;;13.18;7.13;;;-3276.60;87.70;;;;;;5041493;28;20074;-67
2021/01/15 12:16:03;;;;;;;13.73;8.13;;;-3276.60;87.00;;;;;;5039302;28;20028;-67
2021/01/15 12:18:29;;;;;;;13.13;7.63;;;-3276.60;87.90;;;;;;5038175;28;20023;-67
2021/01/15 12:20:55;;;;;;;14.50;7.38;;;-3276.60;87.50;;;;;;5047443;28;20434;-67
2021/01/15 12:23:21;;;;;;;11.65;7.40;;;-3276.50;87.80;;;;;;5043772;28;20021;-68
2021/01/15 12:25:47;;;;;;;14.05;7.95;;;-3276.60;87.90;;;;;;5050659;28;20025;-67
2021/01/15 12:28:14;;;;;;;11.00;6.95;;;-3276.60;87.50;;;;;;5051573;28;20091;-67